createdAt,value
2022-12-04T00:01:03.363Z,8.77
2022-12-04T00:03:31.276Z,8.98
2022-12-04T00:06:04.213Z,10.25
2022-12-04T00:08:32.025Z,5.88
2022-12-04T00:10:59.995Z,7.70
2022-12-04T00:13:27.892Z,8.52
2022-12-04T00:15:57.266Z,8.57
2022-12-04T00:18:25.227Z,6.07
2022-12-04T00:20:53.194Z,6.25
2022-12-04T00:23:21.061Z,8.40
2022-12-04T00:25:49.440Z,15.77
2022-12-04T00:28:17.917Z,6.85
2022-12-04T00:30:46.037Z,7.68
2022-12-04T00:33:15.286Z,6.80
2022-12-04T00:35:43.103Z,5.82
2022-12-04T00:38:11.017Z,2.00
2022-12-04T00:40:38.881Z,9.20
2022-12-04T00:43:06.746Z,9.57
2022-12-04T00:45:34.650Z,6.45
2022-12-04T00:48:02.533Z,9.23
2022-12-04T00:50:31.700Z,5.07
2022-12-04T00:52:59.553Z,8.90
2022-12-04T00:55:27.402Z,5.53
2022-12-04T00:57:59.729Z,3.53
2022-12-04T01:00:27.843Z,7.35
2022-12-04T01:02:55.742Z,6.25
2022-12-04T01:05:23.688Z,4.38
2022-12-04T01:07:53.007Z,12.20
2022-12-04T01:10:20.995Z,9.73
2022-12-04T01:12:50.527Z,8.82
2022-12-04T01:15:18.412Z,6.55
2022-12-04T01:17:46.584Z,5.43
2022-12-04T01:20:14.528Z,13.02
2022-12-04T01:22:42.417Z,6.47
2022-12-04T01:25:12.077Z,8.00
2022-12-04T01:27:39.887Z,7.03
2022-12-04T01:30:08.197Z,12.18
2022-12-04T01:32:35.980Z,11.10
2022-12-04T01:35:03.843Z,8.32
2022-12-04T01:37:32.066Z,8.40
2022-12-04T01:39:59.985Z,3.45
2022-12-04T01:42:29.231Z,12.55
2022-12-04T01:45:15.631Z,8.93
2022-12-04T01:47:43.548Z,16.10
2022-12-04T01:50:11.571Z,9.52
2022-12-04T01:52:39.679Z,8.32
2022-12-04T01:55:07.971Z,6.07
2022-12-04T01:57:38.991Z,9.98
2022-12-04T02:00:08.763Z,7.53
2022-12-04T02:02:37.513Z,10.50
2022-12-04T02:05:06.641Z,11.35
2022-12-04T02:07:34.816Z,16.33
2022-12-04T02:10:06.385Z,10.45
2022-12-04T02:12:36.896Z,13.07
2022-12-04T02:15:09.167Z,5.90
2022-12-04T02:17:39.936Z,9.10
2022-12-04T02:20:24.044Z,6.25
2022-12-04T02:22:57.887Z,6.03
2022-12-04T02:25:30.163Z,5.88
2022-12-04T02:28:03.559Z,7.95
2022-12-04T02:30:32.316Z,7.35
2022-12-04T02:33:03.078Z,15.18
2022-12-04T02:35:32.584Z,12.18
2022-12-04T02:38:04.647Z,9.35
2022-12-04T02:40:35.019Z,11.77
2022-12-04T02:43:07.286Z,6.90
2022-12-04T02:45:38.471Z,10.48
2022-12-04T02:48:07.623Z,14.20
2022-12-04T02:50:37.023Z,12.10
2022-12-04T02:53:06.919Z,9.93
2022-12-04T02:55:36.645Z,6.80
2022-12-04T02:58:08.198Z,9.75
2022-12-04T03:00:36.780Z,6.22
2022-12-04T03:03:06.528Z,9.98
2022-12-04T03:05:39.308Z,13.13
2022-12-04T03:08:08.881Z,7.50
2022-12-04T03:10:39.605Z,6.57
2022-12-04T03:13:11.420Z,8.20
2022-12-04T03:15:42.352Z,9.85
2022-12-04T03:18:13.393Z,7.88
2022-12-04T03:20:41.667Z,12.05
2022-12-04T03:23:12.708Z,7.57
2022-12-04T03:25:44.721Z,13.48
2022-12-04T03:28:18.328Z,10.10
2022-12-04T03:30:50.751Z,4.63
2022-12-04T03:33:20.958Z,9.77
2022-12-04T03:35:50.772Z,10.02
2022-12-04T03:38:21.595Z,13.73
2022-12-04T03:40:53.363Z,10.52
2022-12-04T03:43:25.637Z,7.85
2022-12-04T03:45:55.598Z,11.70
2022-12-04T03:48:24.432Z,8.70
2022-12-04T03:50:53.935Z,4.55
2022-12-04T03:53:26.728Z,4.78
2022-12-04T03:55:58.267Z,6.18
2022-12-04T03:58:29.975Z,7.55
2022-12-04T04:00:59.017Z,4.10
2022-12-04T04:03:29.089Z,10.88
2022-12-04T04:05:58.944Z,9.48
2022-12-04T04:08:31.150Z,12.05
2022-12-04T04:11:01.793Z,7.07
2022-12-04T04:13:50.752Z,8.68
2022-12-04T04:16:39.096Z,10.80
2022-12-04T04:19:25.599Z,9.30
2022-12-04T04:22:12.048Z,4.15
2022-12-04T04:24:42.585Z,11.07
2022-12-04T04:27:10.655Z,11.52
2022-12-04T04:29:40.048Z,5.78
2022-12-04T04:32:13.649Z,9.70
2022-12-04T04:34:45.147Z,6.38
2022-12-04T04:37:16.481Z,6.28
2022-12-04T04:39:46.746Z,13.38
2022-12-04T04:42:17.552Z,6.18
2022-12-04T04:44:49.848Z,7.05
2022-12-04T04:47:19.736Z,9.02
2022-12-04T04:49:48.670Z,7.72
2022-12-04T04:52:17.613Z,7.43
2022-12-04T04:54:45.835Z,7.53
2022-12-04T04:57:13.698Z,4.63
2022-12-04T04:59:41.620Z,8.02
2022-12-04T05:02:11.795Z,6.72
2022-12-04T05:04:39.652Z,10.43
2022-12-04T05:07:07.476Z,6.90
2022-12-04T05:09:39.761Z,6.35
2022-12-04T05:12:09.647Z,9.75
2022-12-04T05:14:37.517Z,11.02
2022-12-04T05:17:12.164Z,8.70
2022-12-04T05:19:57.906Z,5.13
2022-12-04T05:22:27.732Z,14.32
2022-12-04T05:24:56.007Z,12.93
2022-12-04T05:27:25.203Z,8.23
2022-12-04T05:29:53.862Z,11.55
2022-12-04T05:32:22.162Z,10.18
2022-12-04T05:34:51.666Z,12.35
2022-12-04T05:37:19.940Z,9.77
2022-12-04T05:39:47.856Z,8.48
2022-12-04T05:42:15.878Z,12.70
2022-12-04T05:44:43.644Z,9.25
2022-12-04T05:47:11.580Z,10.32
2022-12-04T05:49:39.524Z,4.95
2022-12-04T05:52:08.873Z,8.18
2022-12-04T05:54:36.743Z,7.90
2022-12-04T05:57:04.673Z,5.95
2022-12-04T05:59:32.611Z,5.30
2022-12-04T06:02:00.589Z,6.40
2022-12-04T06:04:28.560Z,9.32
2022-12-04T06:06:57.446Z,15.52
2022-12-04T06:09:26.695Z,3.95
2022-12-04T06:11:57.999Z,7.15
2022-12-04T06:14:25.959Z,11.88
2022-12-04T06:16:53.909Z,2.50
2022-12-04T06:19:22.456Z,10.95
2022-12-04T06:21:51.233Z,5.70
2022-12-04T06:24:20.430Z,5.90
2022-12-04T06:27:25.475Z,6.60
2022-12-04T06:29:38.389Z,8.48
2022-12-04T06:32:06.533Z,6.00
2022-12-04T06:34:35.658Z,8.20
2022-12-04T06:37:03.457Z,8.05
2022-12-04T06:39:31.490Z,5.43
2022-12-04T06:42:00.811Z,11.32
2022-12-04T06:44:28.700Z,6.18
2022-12-04T06:46:56.466Z,8.65
2022-12-04T06:49:25.762Z,2.92
2022-12-04T06:51:53.525Z,8.95
2022-12-04T06:54:21.390Z,4.30
2022-12-04T06:56:49.849Z,11.05
2022-12-04T06:59:19.121Z,10.50
2022-12-04T07:01:47.011Z,6.18
2022-12-04T07:04:14.949Z,7.00
2022-12-04T07:06:42.855Z,6.10
2022-12-04T07:09:11.860Z,9.32
2022-12-04T07:11:39.724Z,11.88
2022-12-04T07:14:07.592Z,13.40
2022-12-04T07:16:40.783Z,6.97
2022-12-04T07:19:09.932Z,11.02
2022-12-04T07:21:37.893Z,3.78
2022-12-04T07:24:06.108Z,8.18
2022-12-04T07:26:33.969Z,4.38
2022-12-04T07:29:01.797Z,8.82
2022-12-04T07:31:30.479Z,8.32
2022-12-04T07:34:00.085Z,3.40
2022-12-04T07:36:28.071Z,5.25
2022-12-04T07:38:56.355Z,12.05
2022-12-04T07:41:24.349Z,3.42
2022-12-04T07:43:52.303Z,6.85
2022-12-04T07:46:21.298Z,7.00
2022-12-04T07:48:49.315Z,8.52
2022-12-04T07:51:19.501Z,6.80
2022-12-04T07:53:48.641Z,5.80
2022-12-04T07:56:16.870Z,5.78
2022-12-04T07:58:45.319Z,7.53
2022-12-04T08:01:14.171Z,6.68
2022-12-04T08:03:47.591Z,7.57
2022-12-04T08:06:18.308Z,12.88
2022-12-04T08:08:46.417Z,5.97
2022-12-04T08:11:15.043Z,5.97
2022-12-04T08:13:42.884Z,10.43
2022-12-04T08:16:11.228Z,11.38
2022-12-04T08:18:40.056Z,10.73
2022-12-04T08:21:08.919Z,14.13
2022-12-04T08:23:38.732Z,5.88
2022-12-04T08:26:07.105Z,8.40
2022-12-04T08:28:35.398Z,13.55
2022-12-04T08:31:03.711Z,11.40
2022-12-04T08:33:31.784Z,8.95
2022-12-04T08:35:59.591Z,9.68
2022-12-04T08:38:27.403Z,14.52
2022-12-04T08:41:00.184Z,8.13
2022-12-04T08:43:28.161Z,12.38
2022-12-04T08:45:59.491Z,7.90
2022-12-04T08:48:27.699Z,12.77
2022-12-04T08:51:00.045Z,11.45
2022-12-04T08:53:28.006Z,8.13
2022-12-04T08:56:01.713Z,10.00
2022-12-04T08:58:29.528Z,17.92
2022-12-04T09:00:57.615Z,14.60
2022-12-04T09:03:30.685Z,11.20
2022-12-04T09:05:59.827Z,15.30
2022-12-04T09:08:27.588Z,14.55
2022-12-04T09:10:55.466Z,12.70
2022-12-04T09:13:24.620Z,14.18
2022-12-04T09:15:52.516Z,16.10
2022-12-04T09:18:20.393Z,17.88
2022-12-04T09:20:56.186Z,16.73
2022-12-04T09:23:23.960Z,20.45
2022-12-04T09:25:51.709Z,20.35
2022-12-04T09:28:19.842Z,18.08
2022-12-04T09:30:56.596Z,16.88
2022-12-04T09:33:24.468Z,19.98
2022-12-04T09:35:52.419Z,21.73
2022-12-04T09:38:20.362Z,21.50
2022-12-04T09:40:51.812Z,20.65
2022-12-04T09:43:23.773Z,20.75
2022-12-04T09:45:55.190Z,22.60
2022-12-04T09:48:33.534Z,21.77
2022-12-04T09:51:01.698Z,20.83
2022-12-04T09:53:31.466Z,18.92
2022-12-04T09:56:02.102Z,19.63
2022-12-04T09:58:33.776Z,19.90
2022-12-04T10:01:04.377Z,25.45
2022-12-04T10:03:32.774Z,20.02
2022-12-04T10:06:05.896Z,27.02
2022-12-04T10:08:36.036Z,20.20
2022-12-04T10:11:07.920Z,23.80
2022-12-04T10:13:52.071Z,20.00
2022-12-04T10:16:24.425Z,20.45
2022-12-04T10:18:56.501Z,22.60
2022-12-04T10:21:31.533Z,22.63
2022-12-04T10:24:05.497Z,22.52
2022-12-04T10:26:35.979Z,21.20
2022-12-04T10:29:05.155Z,19.63
2022-12-04T10:31:35.186Z,21.80
2022-12-04T10:34:05.069Z,21.08
2022-12-04T10:36:34.597Z,23.15
2022-12-04T10:39:04.085Z,22.40
2022-12-04T10:41:35.485Z,22.27
2022-12-04T10:44:03.415Z,22.33
2022-12-04T10:46:32.861Z,19.35
2022-12-04T10:49:03.409Z,21.98
2022-12-04T10:51:34.740Z,20.92
2022-12-04T10:54:02.569Z,20.35
2022-12-04T10:56:30.334Z,18.85
2022-12-04T10:58:59.055Z,21.05
2022-12-04T11:01:28.040Z,19.67
2022-12-04T11:03:57.551Z,19.38
2022-12-04T11:06:27.615Z,20.77
2022-12-04T11:08:55.839Z,19.67
2022-12-04T11:11:26.405Z,19.95
2022-12-04T11:14:02.170Z,18.75
2022-12-04T11:16:33.645Z,21.08
2022-12-04T11:19:01.671Z,18.63
2022-12-04T11:21:31.684Z,18.25
2022-12-04T11:23:59.720Z,18.90
2022-12-04T11:26:31.737Z,18.15
2022-12-04T11:29:01.411Z,17.52
2022-12-04T11:31:30.220Z,16.92
2022-12-04T11:33:59.568Z,15.93
2022-12-04T11:36:28.471Z,16.20
2022-12-04T11:39:05.753Z,14.57
2022-12-04T11:41:34.184Z,15.68
2022-12-04T11:44:01.946Z,16.85
2022-12-04T11:46:30.823Z,18.58
2022-12-04T11:48:59.266Z,14.25
2022-12-04T11:51:33.530Z,14.43
2022-12-04T11:54:07.590Z,14.77
2022-12-04T11:56:36.585Z,15.57
2022-12-04T11:59:13.271Z,14.32
2022-12-04T12:01:44.874Z,14.70
2022-12-04T12:04:25.449Z,18.27
2022-12-04T12:06:59.783Z,16.65
2022-12-04T12:09:32.927Z,14.20
2022-12-04T12:12:03.588Z,14.35
2022-12-04T12:14:33.864Z,14.35
2022-12-04T12:17:07.270Z,13.18
2022-12-04T12:19:53.157Z,15.85
2022-12-04T12:22:27.319Z,14.55
2022-12-04T12:25:03.480Z,14.68
2022-12-04T12:27:41.484Z,16.42
2022-12-04T12:30:11.599Z,15.27
2022-12-04T12:32:45.308Z,14.65
2022-12-04T12:35:19.284Z,13.05
2022-12-04T12:37:49.931Z,15.25
2022-12-04T12:40:24.774Z,13.20
2022-12-04T12:42:58.234Z,12.43
2022-12-04T12:45:29.513Z,12.73
2022-12-04T12:48:00.500Z,15.70
2022-12-04T12:50:33.899Z,13.93
2022-12-04T12:53:04.363Z,12.63
2022-12-04T12:55:36.124Z,14.07
2022-12-04T12:58:07.676Z,13.07
2022-12-04T13:00:38.615Z,12.25
2022-12-04T13:03:12.321Z,14.55
2022-12-04T13:05:42.024Z,13.60
2022-12-04T13:08:12.505Z,14.02
2022-12-04T13:10:44.514Z,14.57
2022-12-04T13:13:15.338Z,16.30
2022-12-04T13:15:45.775Z,13.50
2022-12-04T13:18:19.787Z,15.90
2022-12-04T13:20:50.344Z,14.82
2022-12-04T13:23:24.517Z,14.82
2022-12-04T13:25:59.257Z,15.52
2022-12-04T13:28:36.407Z,15.85
2022-12-04T13:31:07.987Z,15.00
2022-12-04T13:33:51.316Z,16.50
2022-12-04T13:36:32.494Z,14.63
2022-12-04T13:39:21.912Z,17.13
2022-12-04T13:41:57.204Z,19.10
2022-12-04T13:44:26.653Z,22.52
2022-12-04T13:46:56.729Z,16.70
2022-12-04T13:49:26.473Z,15.90
2022-12-04T13:51:54.344Z,16.75
2022-12-04T13:54:24.156Z,18.38
2022-12-04T13:56:54.371Z,17.13
2022-12-04T13:59:24.083Z,20.73
2022-12-04T14:01:53.097Z,18.98
2022-12-04T14:04:27.700Z,14.50
2022-12-04T14:06:56.997Z,18.17
2022-12-04T14:09:27.727Z,18.35
2022-12-04T14:12:00.725Z,16.52
2022-12-04T14:14:29.960Z,17.98
2022-12-04T14:16:59.301Z,17.40
2022-12-04T14:19:34.349Z,19.20
2022-12-04T14:22:02.351Z,17.85
2022-12-04T14:24:31.958Z,18.58
2022-12-04T14:27:11.641Z,17.83
2022-12-04T14:29:45.491Z,17.88
2022-12-04T14:32:16.036Z,18.45
2022-12-04T14:34:44.110Z,19.90
2022-12-04T14:37:19.815Z,18.40
2022-12-04T14:39:48.403Z,18.77
2022-12-04T14:42:18.924Z,22.98
2022-12-04T14:44:47.657Z,21.52
2022-12-04T14:47:20.138Z,20.23
2022-12-04T14:49:53.802Z,18.83
2022-12-04T14:52:26.565Z,18.45
2022-12-04T14:54:57.556Z,18.23
2022-12-04T14:57:34.531Z,17.02
2022-12-04T15:00:05.559Z,17.75
2022-12-04T15:02:35.894Z,25.13
2022-12-04T15:05:04.048Z,21.95
2022-12-04T15:07:32.958Z,22.45
2022-12-04T15:10:18.971Z,21.17
2022-12-04T15:12:49.576Z,20.10
2022-12-04T15:15:19.616Z,21.55
2022-12-04T15:17:56.812Z,21.55
2022-12-04T15:20:25.103Z,20.77
2022-12-04T15:22:54.143Z,17.40
2022-12-04T15:25:23.647Z,13.77
2022-12-04T15:27:54.531Z,14.43
2022-12-04T15:30:24.112Z,17.38
2022-12-04T15:32:53.726Z,16.02
2022-12-04T15:35:23.900Z,14.05
2022-12-04T15:37:51.827Z,16.48
2022-12-04T15:40:21.125Z,12.52
2022-12-04T15:42:48.943Z,20.90
2022-12-04T15:45:26.184Z,11.98
2022-12-04T15:47:55.881Z,13.13
2022-12-04T15:50:27.121Z,14.13
2022-12-04T15:52:58.345Z,13.40
2022-12-04T15:55:27.313Z,13.27
2022-12-04T15:57:56.253Z,16.98
2022-12-04T16:00:27.295Z,12.18
2022-12-04T16:02:55.861Z,12.65
2022-12-04T16:05:32.848Z,14.10
2022-12-04T16:08:01.415Z,9.18
2022-12-04T16:10:30.584Z,12.40
2022-12-04T16:12:59.149Z,12.25
2022-12-04T16:15:35.876Z,9.93
2022-12-04T16:18:05.803Z,4.25
2022-12-04T16:20:34.891Z,9.07
2022-12-04T16:23:03.478Z,12.93
2022-12-04T16:25:32.044Z,12.70
2022-12-04T16:28:00.230Z,13.18
2022-12-04T16:30:30.443Z,12.75
2022-12-04T16:32:58.348Z,5.47
2022-12-04T16:35:26.335Z,9.15
2022-12-04T16:37:54.098Z,10.18
2022-12-04T16:40:21.963Z,3.95
2022-12-04T16:42:49.960Z,11.15
2022-12-04T16:45:24.454Z,11.32
2022-12-04T16:47:53.755Z,10.65
2022-12-04T16:50:21.700Z,12.20
2022-12-04T16:52:49.583Z,11.35
2022-12-04T16:55:19.646Z,8.15
2022-12-04T16:57:47.619Z,7.03
2022-12-04T17:00:15.890Z,5.78
2022-12-04T17:02:44.326Z,10.23
2022-12-04T17:05:18.890Z,10.45
2022-12-04T17:07:47.102Z,10.20
2022-12-04T17:10:18.931Z,7.75
2022-12-04T17:12:52.870Z,11.13
2022-12-04T17:15:20.799Z,7.30
2022-12-04T17:17:48.918Z,8.05
2022-12-04T17:20:19.194Z,9.95
2022-12-04T17:22:47.569Z,9.63
2022-12-04T17:25:15.729Z,9.40
2022-12-04T17:27:44.169Z,10.23
2022-12-04T17:30:12.695Z,13.75
2022-12-04T17:32:40.622Z,11.27
2022-12-04T17:35:09.094Z,9.98
2022-12-04T17:37:38.697Z,7.88
2022-12-04T17:40:07.129Z,10.57
2022-12-04T17:42:35.130Z,10.80
2022-12-04T17:45:03.020Z,10.15
2022-12-04T17:47:30.774Z,10.10
2022-12-04T17:49:58.626Z,8.32
2022-12-04T17:52:26.708Z,10.23
2022-12-04T17:54:56.670Z,14.85
2022-12-04T17:57:24.905Z,6.32
2022-12-04T17:59:53.174Z,4.15
2022-12-04T18:02:21.248Z,12.45
2022-12-04T18:04:49.156Z,7.57
2022-12-04T18:07:17.078Z,8.65
2022-12-04T18:09:44.943Z,5.60
2022-12-04T18:12:14.491Z,10.73
2022-12-04T18:14:42.533Z,4.70
2022-12-04T18:17:10.187Z,4.47
2022-12-04T18:19:38.048Z,4.75
2022-12-04T18:22:07.034Z,10.07
2022-12-04T18:24:34.948Z,9.48
2022-12-04T18:27:03.750Z,6.05
2022-12-04T18:29:33.189Z,3.20
2022-12-04T18:32:01.142Z,7.78
2022-12-04T18:34:29.002Z,3.38
2022-12-04T18:36:57.395Z,3.15
2022-12-04T18:39:26.119Z,8.07
2022-12-04T18:41:56.032Z,4.55
2022-12-04T18:44:23.960Z,6.30
2022-12-04T18:46:53.619Z,11.10
2022-12-04T18:49:21.418Z,8.23
2022-12-04T18:51:50.399Z,6.55
2022-12-04T18:54:19.224Z,8.40
2022-12-04T18:56:47.223Z,3.92
2022-12-04T18:59:16.270Z,2.90
2022-12-04T19:01:44.394Z,7.30
2022-12-04T19:04:16.771Z,4.35
2022-12-04T19:06:45.917Z,6.93
2022-12-04T19:09:16.846Z,6.57
2022-12-04T19:11:45.280Z,5.00
2022-12-04T19:14:21.001Z,7.65
2022-12-04T19:16:51.610Z,8.00
2022-12-04T19:19:21.003Z,5.32
2022-12-04T19:21:49.024Z,4.55
2022-12-04T19:24:17.042Z,6.68
2022-12-04T19:26:45.060Z,5.85
2022-12-04T19:29:14.062Z,3.47
2022-12-04T19:31:42.278Z,4.47
2022-12-04T19:34:10.129Z,4.40
2022-12-04T19:36:40.301Z,5.80
2022-12-04T19:39:08.333Z,6.13
2022-12-04T19:41:37.360Z,2.75
2022-12-04T19:44:26.406Z,4.63
2022-12-04T19:46:53.936Z,3.92
2022-12-04T19:49:21.752Z,4.80
2022-12-04T19:51:51.046Z,8.30
2022-12-04T19:54:19.477Z,5.05
2022-12-04T19:56:51.181Z,4.30
2022-12-04T19:59:19.771Z,3.92
2022-12-04T20:01:48.278Z,11.65
2022-12-04T20:04:16.465Z,7.78
2022-12-04T20:06:45.475Z,2.45
2022-12-04T20:09:15.374Z,2.35
2022-12-04T20:11:43.298Z,6.88
2022-12-04T20:14:11.209Z,6.07
2022-12-04T20:16:40.007Z,8.25
2022-12-04T20:19:08.942Z,3.15
2022-12-04T20:21:36.699Z,2.00
2022-12-04T20:24:06.460Z,3.03
2022-12-04T20:26:38.382Z,3.33
2022-12-04T20:29:07.352Z,4.28
2022-12-04T20:31:35.890Z,4.13
2022-12-04T20:34:05.036Z,5.90
2022-12-04T20:36:36.388Z,4.38
2022-12-04T20:39:04.297Z,4.68
2022-12-04T20:41:32.470Z,4.47
2022-12-04T20:44:02.950Z,5.47
2022-12-04T20:46:32.394Z,5.93
2022-12-04T20:49:01.184Z,5.28
2022-12-04T20:51:29.808Z,4.63
2022-12-04T20:53:59.214Z,4.18
2022-12-04T20:56:29.799Z,4.90
2022-12-04T20:58:58.386Z,2.72
2022-12-04T21:01:28.257Z,7.32
2022-12-04T21:03:57.037Z,7.25
2022-12-04T21:06:28.419Z,2.90
2022-12-04T21:09:01.916Z,3.45
2022-12-04T21:11:30.251Z,3.08
2022-12-04T21:14:16.957Z,5.10
2022-12-04T21:16:46.514Z,7.55
2022-12-04T21:19:15.964Z,2.40
2022-12-04T21:21:43.991Z,6.57
2022-12-04T21:24:12.412Z,3.00
2022-12-04T21:26:40.214Z,4.07
2022-12-04T21:29:08.585Z,5.43
2022-12-04T21:31:36.590Z,5.80
2022-12-04T21:34:07.042Z,4.45
2022-12-04T21:36:35.790Z,5.90
2022-12-04T21:39:04.464Z,6.63
2022-12-04T21:41:49.896Z,3.80
2022-12-04T21:44:19.036Z,2.20
2022-12-04T21:46:47.076Z,3.42
2022-12-04T21:49:16.866Z,4.85
2022-12-04T21:52:00.297Z,1.98
2022-12-04T21:54:28.570Z,3.55
2022-12-04T21:56:56.747Z,3.72
2022-12-04T21:59:24.702Z,7.72
2022-12-04T22:01:52.675Z,7.25
2022-12-04T22:04:22.393Z,4.40
2022-12-04T22:06:50.461Z,5.07
2022-12-04T22:09:18.634Z,3.90
2022-12-04T22:11:46.854Z,6.18
2022-12-04T22:14:15.230Z,3.60
2022-12-04T22:16:43.569Z,9.60
2022-12-04T22:19:11.731Z,5.50
2022-12-04T22:21:41.130Z,4.72
2022-12-04T22:24:10.540Z,6.97
2022-12-04T22:26:38.824Z,2.22
2022-12-04T22:29:27.168Z,8.30
2022-12-04T22:31:54.847Z,7.80
2022-12-04T22:34:22.731Z,4.28
2022-12-04T22:36:51.806Z,7.15
2022-12-04T22:39:19.594Z,4.38
2022-12-04T22:41:47.556Z,5.13
2022-12-04T22:44:15.532Z,12.07
2022-12-04T22:46:43.558Z,3.30
2022-12-04T22:49:11.461Z,6.85
2022-12-04T22:51:39.327Z,6.70
2022-12-04T22:54:08.571Z,3.42
2022-12-04T22:56:36.493Z,7.97
2022-12-04T22:59:04.340Z,7.30
2022-12-04T23:01:33.139Z,4.70
2022-12-04T23:04:01.666Z,4.25
2022-12-04T23:06:31.164Z,3.58
2022-12-04T23:09:00.981Z,11.57
2022-12-04T23:11:30.157Z,6.50
2022-12-04T23:14:00.137Z,7.80
2022-12-04T23:16:28.872Z,8.55
2022-12-04T23:18:57.102Z,6.05
2022-12-04T23:21:25.380Z,3.78
2022-12-04T23:23:53.965Z,7.75
2022-12-04T23:26:22.798Z,3.22
2022-12-04T23:28:52.251Z,3.30
2022-12-04T23:31:20.555Z,9.10
2022-12-04T23:33:48.938Z,7.93
2022-12-04T23:36:17.002Z,6.20
2022-12-04T23:38:45.499Z,2.70
2022-12-04T23:41:14.031Z,4.55
2022-12-04T23:43:42.342Z,3.53
2022-12-04T23:46:13.392Z,5.00
2022-12-04T23:48:41.767Z,8.20
2022-12-04T23:51:09.947Z,4.75
2022-12-04T23:53:37.874Z,3.67
2022-12-04T23:56:08.387Z,2.20
2022-12-04T23:58:36.869Z,4.72
